METAR Data
IDs: Format: Raw Decoded Include TAF

Data at: 0839 UTC 03 Aug 2021

KEED 030756Z AUTO 24007KT 10SM CLR 37/07 A2984 RMK AO2 SLP063 T03670067 404560306 PNO $
KEED 030656Z AUTO 25007KT 10SM CLR 37/08 A2985 RMK AO2 SLP065 T03720078 PNO $
KEED 030556Z AUTO 00000KT 10SM CLR 39/08 A2984 RMK AO2 SLP064 6//// T03890083 10456 20378 51009 PNO $
KEED 030456Z AUTO 24009KT 10SM CLR 39/09 A2984 RMK AO2 SLP065 T03940089 PNO $
KEED 030356Z AUTO 25005KT 10SM CLR 41/11 A2983 RMK AO2 SLP061 T04060106 PNO $
KEED 030256Z AUTO 00000KT 10SM CLR 42/08 A2982 RMK AO2 SLP055 6//// T04220083 55002 PNO $
KEED 030156Z AUTO 09005KT 10SM CLR 44/07 A2981 RMK AO2 SLP053 T04390072 PNO $
KEED 030056Z AUTO 06007KT 10SM FEW110 44/07 A2981 RMK AO2 SLP054 T04440067 PNO $
KEED 022356Z AUTO VRB03KT 10SM FEW110 45/07 A2982 RMK AO2 SLP058 6//// T04500067 10456 20400 56025 PNO $
KEED 022256Z AUTO 09008KT 10SM FEW120 46/07 A2984 RMK AO2 SLP063 T04560072 PNO $
KEED 022156Z AUTO 00000KT 10SM FEW110 44/08 A2987 RMK AO2 SLP073 T04440078 PNO $
KEED 022056Z AUTO 27008KT 220V280 10SM CLR 43/08 A2990 RMK AO2 SLP084 6//// T04330078 56024 PNO $
KEED 021956Z AUTO 03008KT 10SM CLR 44/09 A2992 RMK AO2 SLP090 T04440094 PNO $
KEED 021856Z AUTO 02006KT 10SM CLR 42/12 A2995 RMK AO2 SLP099 T04220117 PNO $
KEED 021756Z AUTO 04004KT 10SM CLR 40/13 A2997 RMK AO2 SLP109 6//// T04000128 10406 20306 58007 PNO $
KEED 021656Z AUTO 00000KT 10SM CLR 38/13 A2998 RMK AO2 SLP113 T03780128 PNO $
KEED 021556Z AUTO 06003KT 10SM CLR 37/14 A2999 RMK AO2 SLP116 T03670139 PNO $
KEED 021456Z AUTO 03004KT 10SM CLR 36/14 A2999 RMK AO2 SLP117 6//// T03560144 51018 PNO $
KEED 021356Z AUTO 34005KT 10SM CLR 33/17 A2998 RMK AO2 SLP112 T03280167 PNO $
KEED 021256Z AUTO 31004KT 10SM CLR 31/18 A2996 RMK AO2 SLP107 T03060178 PNO $
KEED 021156Z AUTO 00000KT 10SM CLR 32/17 A2994 RMK AO2 SLP098 6//// 7//// T03220167 10372 20317 53007 PNO $
KEED 021056Z AUTO 27004KT 10SM CLR 33/17 A2992 RMK AO2 SLP094 T03280167 PNO $
KEED 020956Z AUTO 25004KT 10SM CLR 33/17 A2992 RMK AO2 SLP091 T03280172 PNO $
KEED 020856Z AUTO 28003KT 10SM CLR 33/17 A2992 RMK AO2 SLP091 6//// T03330167 51003 PNO $
KEED 020756Z AUTO 24006KT 10SM CLR 34/17 A2991 RMK AO2 SLP090 T03440167 404330289 PNO $
KEED 020656Z AUTO 09003KT 10SM CLR 36/16 A2991 RMK AO2 SLP090 T03610156 PNO $
KEED 020556Z AUTO 30005KT 10SM CLR 37/15 A2991 RMK AO2 SLP088 6//// T03670150 10428 20367 51015 PNO $
KEED 020456Z AUTO 32005KT 10SM CLR 38/14 A2990 RMK AO2 SLP086 T03780144 PNO $
KEED 020356Z AUTO 33005KT 10SM CLR 39/14 A2988 RMK AO2 SLP080 T03890139 PNO $
KEED 020256Z AUTO 00000KT 10SM CLR 40/13 A2986 RMK AO2 SLP073 6//// T04000128 55001 PNO $
KEED 020156Z AUTO 04007KT 10SM CLR 42/12 A2985 RMK AO2 SLP070 T04170117 PNO $
KEED 020056Z AUTO 00000KT 10SM CLR 42/11 A2985 RMK AO2 SLP070 T04170111 PNO $
KEED 012356Z AUTO 05005KT 10SM CLR 43/12 A2987 RMK AO2 SLP074 6//// T04280122 10433 20378 57018 PNO $
KEED 012256Z AUTO VRB06G17KT 10SM SCT110 43/12 A2989 RMK AO2 SLP081 T04280122 PNO $
KEED 012156Z AUTO 10SM CLR 42/12 A2990 RMK AO2 SLP086 T04220122 PNO $
KEED 012056Z AUTO 13009KT 090V160 10SM CLR 41/13 A2992 RMK AO2 SLP093 6//// T04110133 58025 PNO $